sensor_id;sensor_type;location;lat;lon;timestamp;P1;durP1;ratioP1;P2;durP2;ratioP2
57605;SDS011;43430;48.204;11.556;2022-10-17T00:01:26;4.72;;;2.42;;
57605;SDS011;43430;48.204;11.556;2022-10-17T00:03:51;8.43;;;2.67;;
57605;SDS011;43430;48.204;11.556;2022-10-17T00:06:16;6.38;;;2.53;;
57605;SDS011;43430;48.204;11.556;2022-10-17T00:08:42;4.57;;;2.08;;
57605;SDS011;43430;48.204;11.556;2022-10-17T00:11:15;6.28;;;2.20;;
57605;SDS011;43430;48.204;11.556;2022-10-17T00:13:42;6.40;;;2.50;;
57605;SDS011;43430;48.204;11.556;2022-10-17T00:16:08;8.88;;;2.42;;
57605;SDS011;43430;48.204;11.556;2022-10-17T00:18:34;5.10;;;2.10;;
57605;SDS011;43430;48.204;11.556;2022-10-17T00:20:59;5.05;;;2.28;;
57605;SDS011;43430;48.204;11.556;2022-10-17T00:23:24;4.32;;;1.83;;
57605;SDS011;43430;48.204;11.556;2022-10-17T00:26:03;5.53;;;2.35;;
57605;SDS011;43430;48.204;11.556;2022-10-17T00:28:29;4.43;;;1.90;;
57605;SDS011;43430;48.204;11.556;2022-10-17T00:30:59;6.40;;;2.13;;
57605;SDS011;43430;48.204;11.556;2022-10-17T00:33:26;5.68;;;2.78;;
57605;SDS011;43430;48.204;11.556;2022-10-17T00:36:05;5.35;;;2.33;;
57605;SDS011;43430;48.204;11.556;2022-10-17T00:38:37;5.53;;;2.20;;
57605;SDS011;43430;48.204;11.556;2022-10-17T00:41:03;4.00;;;2.00;;
57605;SDS011;43430;48.204;11.556;2022-10-17T00:43:30;5.13;;;2.35;;
57605;SDS011;43430;48.204;11.556;2022-10-17T00:46:13;6.30;;;2.40;;
57605;SDS011;43430;48.204;11.556;2022-10-17T00:48:38;7.45;;;2.85;;
57605;SDS011;43430;48.204;11.556;2022-10-17T00:51:04;5.63;;;2.42;;
57605;SDS011;43430;48.204;11.556;2022-10-17T00:53:30;6.95;;;2.30;;
57605;SDS011;43430;48.204;11.556;2022-10-17T00:55:55;5.18;;;1.95;;
57605;SDS011;43430;48.204;11.556;2022-10-17T00:58:21;8.20;;;1.90;;
57605;SDS011;43430;48.204;11.556;2022-10-17T01:00:46;4.88;;;1.98;;
57605;SDS011;43430;48.204;11.556;2022-10-17T01:03:12;5.55;;;2.05;;
57605;SDS011;43430;48.204;11.556;2022-10-17T01:05:38;5.38;;;2.05;;
57605;SDS011;43430;48.204;11.556;2022-10-17T01:08:05;4.70;;;1.92;;
57605;SDS011;43430;48.204;11.556;2022-10-17T01:10:41;5.40;;;2.33;;
57605;SDS011;43430;48.204;11.556;2022-10-17T01:13:29;4.93;;;1.90;;
57605;SDS011;43430;48.204;11.556;2022-10-17T01:35:24;6.72;;;2.10;;
57605;SDS011;43430;48.204;11.556;2022-10-17T01:38:08;8.05;;;2.33;;
57605;SDS011;43430;48.204;11.556;2022-10-17T01:40:42;4.32;;;1.88;;
57605;SDS011;43430;48.204;11.556;2022-10-17T01:43:31;5.15;;;2.15;;
57605;SDS011;43430;48.204;11.556;2022-10-17T01:46:37;8.60;;;2.72;;
57605;SDS011;43430;48.204;11.556;2022-10-17T01:49:04;7.93;;;2.47;;
57605;SDS011;43430;48.204;11.556;2022-10-17T01:56:41;3.95;;;2.28;;
57605;SDS011;43430;48.204;11.556;2022-10-17T01:59:12;5.28;;;1.92;;
57605;SDS011;43430;48.204;11.556;2022-10-17T02:01:42;6.60;;;2.78;;
57605;SDS011;43430;48.204;11.556;2022-10-17T02:04:08;3.00;;;1.60;;
57605;SDS011;43430;48.204;11.556;2022-10-17T02:06:35;4.63;;;1.90;;
57605;SDS011;43430;48.204;11.556;2022-10-17T02:09:13;8.43;;;2.17;;
57605;SDS011;43430;48.204;11.556;2022-10-17T02:11:41;5.68;;;1.98;;
57605;SDS011;43430;48.204;11.556;2022-10-17T02:14:17;4.38;;;1.90;;
57605;SDS011;43430;48.204;11.556;2022-10-17T02:20:48;5.80;;;2.42;;
57605;SDS011;43430;48.204;11.556;2022-10-17T02:22:59;6.35;;;1.90;;
57605;SDS011;43430;48.204;11.556;2022-10-17T02:25:30;5.35;;;1.88;;
57605;SDS011;43430;48.204;11.556;2022-10-17T02:33:06;4.82;;;2.05;;
57605;SDS011;43430;48.204;11.556;2022-10-17T02:35:37;3.97;;;1.65;;
57605;SDS011;43430;48.204;11.556;2022-10-17T02:38:06;3.65;;;1.70;;
57605;SDS011;43430;48.204;11.556;2022-10-17T02:40:35;3.17;;;1.55;;
57605;SDS011;43430;48.204;11.556;2022-10-17T02:43:01;3.63;;;1.60;;
57605;SDS011;43430;48.204;11.556;2022-10-17T02:45:27;4.47;;;1.77;;
57605;SDS011;43430;48.204;11.556;2022-10-17T02:48:01;7.30;;;1.80;;
57605;SDS011;43430;48.204;11.556;2022-10-17T02:53:08;4.03;;;1.83;;
57605;SDS011;43430;48.204;11.556;2022-10-17T02:55:40;4.63;;;1.42;;
57605;SDS011;43430;48.204;11.556;2022-10-17T02:58:16;3.90;;;1.90;;
57605;SDS011;43430;48.204;11.556;2022-10-17T03:03:30;4.47;;;1.80;;
57605;SDS011;43430;48.204;11.556;2022-10-17T03:05:56;6.20;;;1.60;;
57605;SDS011;43430;48.204;11.556;2022-10-17T03:08:21;5.05;;;1.40;;
57605;SDS011;43430;48.204;11.556;2022-10-17T03:10:47;4.30;;;1.95;;
57605;SDS011;43430;48.204;11.556;2022-10-17T03:13:13;5.22;;;1.60;;
57605;SDS011;43430;48.204;11.556;2022-10-17T03:15:39;4.20;;;1.65;;
57605;SDS011;43430;48.204;11.556;2022-10-17T03:18:05;6.20;;;2.00;;
57605;SDS011;43430;48.204;11.556;2022-10-17T03:20:30;7.70;;;2.08;;
57605;SDS011;43430;48.204;11.556;2022-10-17T03:22:55;4.93;;;1.33;;
57605;SDS011;43430;48.204;11.556;2022-10-17T03:25:21;4.47;;;1.60;;
57605;SDS011;43430;48.204;11.556;2022-10-17T03:27:46;3.45;;;1.38;;
57605;SDS011;43430;48.204;11.556;2022-10-17T03:30:11;4.25;;;1.52;;
57605;SDS011;43430;48.204;11.556;2022-10-17T03:32:37;4.57;;;1.70;;
57605;SDS011;43430;48.204;11.556;2022-10-17T03:35:03;7.45;;;2.38;;
57605;SDS011;43430;48.204;11.556;2022-10-17T03:37:28;9.25;;;5.10;;
57605;SDS011;43430;48.204;11.556;2022-10-17T03:39:54;10.60;;;4.20;;
57605;SDS011;43430;48.204;11.556;2022-10-17T03:42:19;8.02;;;4.22;;
57605;SDS011;43430;48.204;11.556;2022-10-17T03:44:44;11.82;;;3.22;;
57605;SDS011;43430;48.204;11.556;2022-10-17T03:47:10;7.53;;;3.05;;
57605;SDS011;43430;48.204;11.556;2022-10-17T03:49:35;5.82;;;2.47;;
57605;SDS011;43430;48.204;11.556;2022-10-17T03:52:00;7.20;;;3.15;;
57605;SDS011;43430;48.204;11.556;2022-10-17T03:54:26;6.35;;;2.65;;
57605;SDS011;43430;48.204;11.556;2022-10-17T03:56:51;6.18;;;2.72;;
57605;SDS011;43430;48.204;11.556;2022-10-17T03:59:17;3.47;;;1.80;;
57605;SDS011;43430;48.204;11.556;2022-10-17T04:01:42;4.68;;;1.63;;
57605;SDS011;43430;48.204;11.556;2022-10-17T04:04:08;5.97;;;1.77;;
57605;SDS011;43430;48.204;11.556;2022-10-17T04:06:34;11.90;;;2.10;;
57605;SDS011;43430;48.204;11.556;2022-10-17T04:09:00;4.57;;;1.60;;
57605;SDS011;43430;48.204;11.556;2022-10-17T04:11:26;5.50;;;2.13;;
57605;SDS011;43430;48.204;11.556;2022-10-17T04:13:52;4.68;;;1.52;;
57605;SDS011;43430;48.204;11.556;2022-10-17T04:16:18;5.03;;;1.40;;
57605;SDS011;43430;48.204;11.556;2022-10-17T04:18:44;3.85;;;1.30;;
57605;SDS011;43430;48.204;11.556;2022-10-17T04:21:10;5.75;;;1.65;;
57605;SDS011;43430;48.204;11.556;2022-10-17T04:23:36;5.75;;;1.95;;
57605;SDS011;43430;48.204;11.556;2022-10-17T04:26:02;6.22;;;1.65;;
57605;SDS011;43430;48.204;11.556;2022-10-17T04:28:29;4.25;;;1.70;;
57605;SDS011;43430;48.204;11.556;2022-10-17T04:30:59;6.32;;;2.05;;
57605;SDS011;43430;48.204;11.556;2022-10-17T04:33:29;3.55;;;1.60;;
57605;SDS011;43430;48.204;11.556;2022-10-17T04:36:05;3.80;;;1.83;;
57605;SDS011;43430;48.204;11.556;2022-10-17T04:38:35;4.18;;;1.52;;
57605;SDS011;43430;48.204;11.556;2022-10-17T04:41:02;4.28;;;1.48;;
57605;SDS011;43430;48.204;11.556;2022-10-17T04:43:30;4.20;;;1.55;;
57605;SDS011;43430;48.204;11.556;2022-10-17T04:45:58;5.15;;;1.65;;
57605;SDS011;43430;48.204;11.556;2022-10-17T04:48:25;4.18;;;1.83;;
57605;SDS011;43430;48.204;11.556;2022-10-17T04:50:55;4.80;;;1.67;;
57605;SDS011;43430;48.204;11.556;2022-10-17T04:53:23;3.80;;;1.30;;
57605;SDS011;43430;48.204;11.556;2022-10-17T04:55:48;5.50;;;1.77;;
57605;SDS011;43430;48.204;11.556;2022-10-17T04:58:14;5.80;;;1.63;;
57605;SDS011;43430;48.204;11.556;2022-10-17T05:00:40;8.25;;;1.80;;
57605;SDS011;43430;48.204;11.556;2022-10-17T05:03:05;4.95;;;1.88;;
57605;SDS011;43430;48.204;11.556;2022-10-17T05:05:30;4.40;;;1.70;;
57605;SDS011;43430;48.204;11.556;2022-10-17T05:07:56;4.45;;;1.95;;
57605;SDS011;43430;48.204;11.556;2022-10-17T05:10:21;5.43;;;1.80;;
57605;SDS011;43430;48.204;11.556;2022-10-17T05:12:47;4.28;;;1.45;;
57605;SDS011;43430;48.204;11.556;2022-10-17T05:15:12;4.18;;;1.60;;
57605;SDS011;43430;48.204;11.556;2022-10-17T05:17:38;5.93;;;1.33;;
57605;SDS011;43430;48.204;11.556;2022-10-17T05:20:03;4.78;;;1.95;;
57605;SDS011;43430;48.204;11.556;2022-10-17T05:22:29;5.47;;;1.75;;
57605;SDS011;43430;48.204;11.556;2022-10-17T05:24:55;5.72;;;1.80;;
57605;SDS011;43430;48.204;11.556;2022-10-17T05:27:20;5.47;;;2.00;;
57605;SDS011;43430;48.204;11.556;2022-10-17T05:29:45;5.47;;;2.28;;
57605;SDS011;43430;48.204;11.556;2022-10-17T05:32:11;7.50;;;2.42;;
57605;SDS011;43430;48.204;11.556;2022-10-17T05:34:36;5.75;;;2.55;;
57605;SDS011;43430;48.204;11.556;2022-10-17T05:37:01;8.65;;;3.60;;
57605;SDS011;43430;48.204;11.556;2022-10-17T05:39:27;6.03;;;2.25;;
57605;SDS011;43430;48.204;11.556;2022-10-17T05:41:52;5.93;;;2.08;;
57605;SDS011;43430;48.204;11.556;2022-10-17T05:44:17;6.07;;;2.55;;
57605;SDS011;43430;48.204;11.556;2022-10-17T05:46:43;6.35;;;3.05;;
57605;SDS011;43430;48.204;11.556;2022-10-17T05:49:08;7.72;;;2.20;;
57605;SDS011;43430;48.204;11.556;2022-10-17T05:51:34;5.93;;;2.50;;
57605;SDS011;43430;48.204;11.556;2022-10-17T05:54:00;7.82;;;2.72;;
57605;SDS011;43430;48.204;11.556;2022-10-17T05:56:25;6.05;;;2.63;;
57605;SDS011;43430;48.204;11.556;2022-10-17T05:58:51;5.57;;;2.40;;
57605;SDS011;43430;48.204;11.556;2022-10-17T06:01:16;7.20;;;2.60;;
57605;SDS011;43430;48.204;11.556;2022-10-17T06:03:42;4.35;;;2.60;;
57605;SDS011;43430;48.204;11.556;2022-10-17T06:06:11;6.70;;;2.80;;
57605;SDS011;43430;48.204;11.556;2022-10-17T06:08:38;6.47;;;2.13;;
57605;SDS011;43430;48.204;11.556;2022-10-17T06:11:03;9.85;;;2.53;;
57605;SDS011;43430;48.204;11.556;2022-10-17T06:13:29;6.78;;;3.40;;
57605;SDS011;43430;48.204;11.556;2022-10-17T06:15:54;10.23;;;2.65;;
57605;SDS011;43430;48.204;11.556;2022-10-17T06:18:20;7.40;;;2.78;;
57605;SDS011;43430;48.204;11.556;2022-10-17T06:20:45;8.75;;;2.40;;
57605;SDS011;43430;48.204;11.556;2022-10-17T06:23:11;6.90;;;2.25;;
57605;SDS011;43430;48.204;11.556;2022-10-17T06:25:37;6.57;;;2.50;;
57605;SDS011;43430;48.204;11.556;2022-10-17T06:28:02;6.85;;;2.95;;
57605;SDS011;43430;48.204;11.556;2022-10-17T06:30:28;6.35;;;3.15;;
57605;SDS011;43430;48.204;11.556;2022-10-17T06:32:53;6.97;;;2.97;;
57605;SDS011;43430;48.204;11.556;2022-10-17T06:35:18;7.68;;;3.35;;
57605;SDS011;43430;48.204;11.556;2022-10-17T06:37:44;6.55;;;2.83;;
57605;SDS011;43430;48.204;11.556;2022-10-17T06:40:10;8.65;;;2.47;;
57605;SDS011;43430;48.204;11.556;2022-10-17T06:42:36;11.35;;;3.20;;
57605;SDS011;43430;48.204;11.556;2022-10-17T06:45:02;11.52;;;3.03;;
57605;SDS011;43430;48.204;11.556;2022-10-17T06:47:28;7.93;;;2.72;;
57605;SDS011;43430;48.204;11.556;2022-10-17T06:49:54;11.27;;;3.65;;
57605;SDS011;43430;48.204;11.556;2022-10-17T06:52:19;13.63;;;3.75;;
57605;SDS011;43430;48.204;11.556;2022-10-17T06:54:44;12.07;;;3.72;;
57605;SDS011;43430;48.204;11.556;2022-10-17T06:57:10;12.82;;;3.17;;
57605;SDS011;43430;48.204;11.556;2022-10-17T06:59:35;9.00;;;3.08;;
57605;SDS011;43430;48.204;11.556;2022-10-17T07:02:00;17.48;;;3.15;;
57605;SDS011;43430;48.204;11.556;2022-10-17T07:04:26;18.25;;;3.95;;
57605;SDS011;43430;48.204;11.556;2022-10-17T07:06:52;17.35;;;5.25;;
57605;SDS011;43430;48.204;11.556;2022-10-17T07:09:18;20.10;;;5.43;;
57605;SDS011;43430;48.204;11.556;2022-10-17T07:11:43;14.98;;;3.92;;
57605;SDS011;43430;48.204;11.556;2022-10-17T07:14:09;19.98;;;5.25;;
57605;SDS011;43430;48.204;11.556;2022-10-17T07:16:34;19.23;;;5.47;;
57605;SDS011;43430;48.204;11.556;2022-10-17T07:19:00;14.45;;;3.88;;
57605;SDS011;43430;48.204;11.556;2022-10-17T07:21:26;18.50;;;4.97;;
57605;SDS011;43430;48.204;11.556;2022-10-17T07:23:51;17.70;;;5.15;;
57605;SDS011;43430;48.204;11.556;2022-10-17T07:26:17;18.10;;;3.55;;
57605;SDS011;43430;48.204;11.556;2022-10-17T07:28:43;15.23;;;3.60;;
57605;SDS011;43430;48.204;11.556;2022-10-17T07:31:11;11.82;;;2.90;;
57605;SDS011;43430;48.204;11.556;2022-10-17T07:33:38;10.57;;;2.88;;
57605;SDS011;43430;48.204;11.556;2022-10-17T07:36:04;8.43;;;3.13;;
57605;SDS011;43430;48.204;11.556;2022-10-17T07:38:30;7.22;;;2.75;;
57605;SDS011;43430;48.204;11.556;2022-10-17T07:40:56;7.90;;;3.05;;
57605;SDS011;43430;48.204;11.556;2022-10-17T07:43:23;6.50;;;2.92;;
57605;SDS011;43430;48.204;11.556;2022-10-17T07:45:49;6.93;;;2.95;;
57605;SDS011;43430;48.204;11.556;2022-10-17T07:48:15;10.15;;;3.75;;
57605;SDS011;43430;48.204;11.556;2022-10-17T07:50:41;12.88;;;4.20;;
57605;SDS011;43430;48.204;11.556;2022-10-17T07:53:06;7.15;;;3.50;;
57605;SDS011;43430;48.204;11.556;2022-10-17T07:55:32;8.73;;;3.78;;
57605;SDS011;43430;48.204;11.556;2022-10-17T07:57:57;8.55;;;4.07;;
57605;SDS011;43430;48.204;11.556;2022-10-17T08:00:24;10.60;;;3.50;;
57605;SDS011;43430;48.204;11.556;2022-10-17T08:02:50;8.50;;;3.53;;
57605;SDS011;43430;48.204;11.556;2022-10-17T08:05:16;6.57;;;2.50;;
57605;SDS011;43430;48.204;11.556;2022-10-17T08:07:41;14.00;;;3.40;;
57605;SDS011;43430;48.204;11.556;2022-10-17T08:10:07;6.20;;;2.40;;
57605;SDS011;43430;48.204;11.556;2022-10-17T08:12:32;6.65;;;3.22;;
57605;SDS011;43430;48.204;11.556;2022-10-17T08:15:01;5.70;;;2.40;;
57605;SDS011;43430;48.204;11.556;2022-10-17T08:17:27;4.78;;;2.08;;
57605;SDS011;43430;48.204;11.556;2022-10-17T08:19:52;6.45;;;2.20;;
57605;SDS011;43430;48.204;11.556;2022-10-17T08:22:18;5.63;;;1.77;;
57605;SDS011;43430;48.204;11.556;2022-10-17T08:24:43;3.88;;;1.75;;
57605;SDS011;43430;48.204;11.556;2022-10-17T08:27:10;4.25;;;1.80;;
57605;SDS011;43430;48.204;11.556;2022-10-17T08:29:37;3.92;;;1.85;;
57605;SDS011;43430;48.204;11.556;2022-10-17T08:32:03;4.60;;;1.75;;
57605;SDS011;43430;48.204;11.556;2022-10-17T08:34:30;3.67;;;1.60;;
57605;SDS011;43430;48.204;11.556;2022-10-17T08:36:55;3.67;;;1.77;;
57605;SDS011;43430;48.204;11.556;2022-10-17T08:39:21;3.28;;;1.45;;
57605;SDS011;43430;48.204;11.556;2022-10-17T08:47:26;5.30;;;1.47;;
57605;SDS011;43430;48.204;11.556;2022-10-17T08:49:58;3.85;;;1.20;;
57605;SDS011;43430;48.204;11.556;2022-10-17T08:52:44;4.28;;;1.67;;
57605;SDS011;43430;48.204;11.556;2022-10-17T08:55:18;3.80;;;1.35;;
57605;SDS011;43430;48.204;11.556;2022-10-17T08:57:52;4.13;;;2.05;;
57605;SDS011;43430;48.204;11.556;2022-10-17T09:00:19;4.55;;;1.65;;
57605;SDS011;43430;48.204;11.556;2022-10-17T09:03:08;3.45;;;1.50;;
57605;SDS011;43430;48.204;11.556;2022-10-17T09:05:52;4.43;;;1.48;;
57605;SDS011;43430;48.204;11.556;2022-10-17T09:20:03;3.80;;;1.85;;
57605;SDS011;43430;48.204;11.556;2022-10-17T09:22:40;3.88;;;1.60;;
57605;SDS011;43430;48.204;11.556;2022-10-17T09:25:11;6.25;;;1.90;;
57605;SDS011;43430;48.204;11.556;2022-10-17T09:27:41;7.72;;;1.70;;
57605;SDS011;43430;48.204;11.556;2022-10-17T09:30:53;3.38;;;1.73;;
57605;SDS011;43430;48.204;11.556;2022-10-17T09:33:12;3.35;;;1.55;;
57605;SDS011;43430;48.204;11.556;2022-10-17T09:35:42;6.47;;;1.95;;
57605;SDS011;43430;48.204;11.556;2022-10-17T09:38:12;4.63;;;1.60;;
57605;SDS011;43430;48.204;11.556;2022-10-17T09:40:41;6.18;;;1.65;;
57605;SDS011;43430;48.204;11.556;2022-10-17T09:43:08;4.90;;;1.88;;
57605;SDS011;43430;48.204;11.556;2022-10-17T09:45:39;4.75;;;1.23;;
57605;SDS011;43430;48.204;11.556;2022-10-17T09:50:45;2.90;;;1.08;;
57605;SDS011;43430;48.204;11.556;2022-10-17T09:53:12;4.05;;;1.77;;
57605;SDS011;43430;48.204;11.556;2022-10-17T09:55:46;6.50;;;1.73;;
57605;SDS011;43430;48.204;11.556;2022-10-17T09:58:13;4.78;;;1.92;;
57605;SDS011;43430;48.204;11.556;2022-10-17T10:00:41;3.13;;;1.73;;
57605;SDS011;43430;48.204;11.556;2022-10-17T10:05:35;3.10;;;1.10;;
57605;SDS011;43430;48.204;11.556;2022-10-17T10:08:02;2.50;;;1.25;;
57605;SDS011;43430;48.204;11.556;2022-10-17T10:10:47;3.08;;;1.42;;
57605;SDS011;43430;48.204;11.556;2022-10-17T10:13:25;3.75;;;1.38;;
57605;SDS011;43430;48.204;11.556;2022-10-17T10:15:51;3.80;;;1.27;;
57605;SDS011;43430;48.204;11.556;2022-10-17T10:21:02;3.33;;;1.52;;
57605;SDS011;43430;48.204;11.556;2022-10-17T10:23:41;4.43;;;1.75;;
57605;SDS011;43430;48.204;11.556;2022-10-17T10:26:17;4.72;;;1.10;;
57605;SDS011;43430;48.204;11.556;2022-10-17T10:29:05;2.40;;;1.40;;
57605;SDS011;43430;48.204;11.556;2022-10-17T10:31:44;2.90;;;1.60;;
57605;SDS011;43430;48.204;11.556;2022-10-17T10:36:42;3.92;;;1.48;;
57605;SDS011;43430;48.204;11.556;2022-10-17T10:39:09;2.80;;;1.10;;
57605;SDS011;43430;48.204;11.556;2022-10-17T10:41:48;2.63;;;1.27;;
57605;SDS011;43430;48.204;11.556;2022-10-17T10:44:14;5.60;;;1.50;;
57605;SDS011;43430;48.204;11.556;2022-10-17T10:46:43;5.20;;;1.52;;
57605;SDS011;43430;48.204;11.556;2022-10-17T10:49:26;3.28;;;1.20;;
57605;SDS011;43430;48.204;11.556;2022-10-17T10:51:54;3.78;;;1.10;;
57605;SDS011;43430;48.204;11.556;2022-10-17T10:54:23;8.38;;;1.75;;
57605;SDS011;43430;48.204;11.556;2022-10-17T10:56:58;4.78;;;1.25;;
57605;SDS011;43430;48.204;11.556;2022-10-17T11:02:01;2.15;;;1.13;;
57605;SDS011;43430;48.204;11.556;2022-10-17T11:04:46;5.15;;;1.50;;
57605;SDS011;43430;48.204;11.556;2022-10-17T11:07:25;5.20;;;1.40;;
57605;SDS011;43430;48.204;11.556;2022-10-17T11:15:30;4.60;;;1.30;;
57605;SDS011;43430;48.204;11.556;2022-10-17T11:18:06;6.78;;;1.50;;
57605;SDS011;43430;48.204;11.556;2022-10-17T11:23:36;2.72;;;1.45;;
57605;SDS011;43430;48.204;11.556;2022-10-17T11:26:13;3.95;;;1.70;;
57605;SDS011;43430;48.204;11.556;2022-10-17T11:28:50;3.17;;;1.20;;
57605;SDS011;43430;48.204;11.556;2022-10-17T11:31:30;2.80;;;1.60;;
57605;SDS011;43430;48.204;11.556;2022-10-17T11:34:02;3.60;;;1.58;;
57605;SDS011;43430;48.204;11.556;2022-10-17T11:36:37;3.53;;;1.30;;
57605;SDS011;43430;48.204;11.556;2022-10-17T11:39:09;2.33;;;1.40;;
57605;SDS011;43430;48.204;11.556;2022-10-17T11:41:40;4.55;;;1.30;;
57605;SDS011;43430;48.204;11.556;2022-10-17T11:44:21;4.38;;;2.00;;
57605;SDS011;43430;48.204;11.556;2022-10-17T11:47:37;2.88;;;1.50;;
57605;SDS011;43430;48.204;11.556;2022-10-17T11:49:58;3.72;;;1.30;;
57605;SDS011;43430;48.204;11.556;2022-10-17T11:52:50;5.23;;;1.30;;
57605;SDS011;43430;48.204;11.556;2022-10-17T11:55:20;2.97;;;1.37;;
57605;SDS011;43430;48.204;11.556;2022-10-17T12:14:37;2.88;;;1.52;;
57605;SDS011;43430;48.204;11.556;2022-10-17T12:19:52;4.05;;;1.30;;
57605;SDS011;43430;48.204;11.556;2022-10-17T12:22:19;4.75;;;1.50;;
57605;SDS011;43430;48.204;11.556;2022-10-17T12:30:00;2.97;;;1.40;;
57605;SDS011;43430;48.204;11.556;2022-10-17T12:32:29;3.97;;;1.48;;
57605;SDS011;43430;48.204;11.556;2022-10-17T12:34:55;1.63;;;1.08;;
57605;SDS011;43430;48.204;11.556;2022-10-17T12:42:58;2.92;;;1.20;;
57605;SDS011;43430;48.204;11.556;2022-10-17T12:51:05;4.18;;;1.27;;
57605;SDS011;43430;48.204;11.556;2022-10-17T12:56:10;2.75;;;1.48;;
57605;SDS011;43430;48.204;11.556;2022-10-17T12:58:49;6.93;;;1.52;;
57605;SDS011;43430;48.204;11.556;2022-10-17T13:01:29;1.90;;;1.20;;
57605;SDS011;43430;48.204;11.556;2022-10-17T13:03:56;2.63;;;1.30;;
57605;SDS011;43430;48.204;11.556;2022-10-17T13:06:27;1.63;;;1.02;;
57605;SDS011;43430;48.204;11.556;2022-10-17T13:09:02;3.55;;;1.52;;
57605;SDS011;43430;48.204;11.556;2022-10-17T13:11:31;1.90;;;1.27;;
57605;SDS011;43430;48.204;11.556;2022-10-17T13:13:59;3.28;;;1.42;;
57605;SDS011;43430;48.204;11.556;2022-10-17T13:18:57;2.80;;;1.48;;
57605;SDS011;43430;48.204;11.556;2022-10-17T13:21:24;2.88;;;1.45;;
57605;SDS011;43430;48.204;11.556;2022-10-17T13:23:50;2.88;;;1.33;;
57605;SDS011;43430;48.204;11.556;2022-10-17T13:29:31;2.63;;;1.60;;
57605;SDS011;43430;48.204;11.556;2022-10-17T13:31:36;2.70;;;1.15;;
57605;SDS011;43430;48.204;11.556;2022-10-17T13:34:04;2.92;;;1.23;;
57605;SDS011;43430;48.204;11.556;2022-10-17T13:36:59;3.50;;;1.50;;
57605;SDS011;43430;48.204;11.556;2022-10-17T13:39:28;2.42;;;1.20;;
57605;SDS011;43430;48.204;11.556;2022-10-17T13:42:00;1.50;;;1.10;;
57605;SDS011;43430;48.204;11.556;2022-10-17T13:44:27;2.95;;;1.55;;
57605;SDS011;43430;48.204;11.556;2022-10-17T13:46:57;2.15;;;1.45;;
57605;SDS011;43430;48.204;11.556;2022-10-17T13:49:27;4.68;;;1.55;;
57605;SDS011;43430;48.204;11.556;2022-10-17T13:51:57;2.47;;;1.60;;
57605;SDS011;43430;48.204;11.556;2022-10-17T13:57:16;2.00;;;1.13;;
57605;SDS011;43430;48.204;11.556;2022-10-17T13:59:50;3.95;;;1.23;;
57605;SDS011;43430;48.204;11.556;2022-10-17T14:02:24;3.05;;;1.30;;
57605;SDS011;43430;48.204;11.556;2022-10-17T14:07:32;1.52;;;1.17;;
57605;SDS011;43430;48.204;11.556;2022-10-17T14:10:26;1.77;;;1.20;;
57605;SDS011;43430;48.204;11.556;2022-10-17T14:12:59;2.30;;;1.35;;
57605;SDS011;43430;48.204;11.556;2022-10-17T14:15:27;3.47;;;1.33;;
57605;SDS011;43430;48.204;11.556;2022-10-17T14:17:55;2.35;;;1.50;;
57605;SDS011;43430;48.204;11.556;2022-10-17T14:20:23;3.33;;;1.30;;
57605;SDS011;43430;48.204;11.556;2022-10-17T14:22:49;2.58;;;1.67;;
57605;SDS011;43430;48.204;11.556;2022-10-17T14:25:30;3.72;;;1.45;;
57605;SDS011;43430;48.204;11.556;2022-10-17T14:30:39;1.73;;;1.25;;
57605;SDS011;43430;48.204;11.556;2022-10-17T14:33:07;2.08;;;1.23;;
57605;SDS011;43430;48.204;11.556;2022-10-17T14:35:37;1.75;;;1.60;;
57605;SDS011;43430;48.204;11.556;2022-10-17T14:38:04;2.35;;;1.58;;
57605;SDS011;43430;48.204;11.556;2022-10-17T14:40:31;2.97;;;1.73;;
57605;SDS011;43430;48.204;11.556;2022-10-17T14:43:03;4.00;;;1.55;;
57605;SDS011;43430;48.204;11.556;2022-10-17T14:45:31;3.67;;;1.37;;
57605;SDS011;43430;48.204;11.556;2022-10-17T14:48:02;2.80;;;1.20;;
57605;SDS011;43430;48.204;11.556;2022-10-17T14:50:31;2.47;;;1.55;;
57605;SDS011;43430;48.204;11.556;2022-10-17T14:52:57;2.30;;;1.40;;
57605;SDS011;43430;48.204;11.556;2022-10-17T14:55:25;2.75;;;1.58;;
57605;SDS011;43430;48.204;11.556;2022-10-17T14:57:52;2.47;;;1.38;;
57605;SDS011;43430;48.204;11.556;2022-10-17T15:00:18;2.13;;;1.58;;
57605;SDS011;43430;48.204;11.556;2022-10-17T15:02:45;2.25;;;1.50;;
57605;SDS011;43430;48.204;11.556;2022-10-17T15:05:12;2.50;;;1.08;;
57605;SDS011;43430;48.204;11.556;2022-10-17T15:07:38;2.10;;;1.50;;
57605;SDS011;43430;48.204;11.556;2022-10-17T15:10:04;2.05;;;1.40;;
57605;SDS011;43430;48.204;11.556;2022-10-17T15:12:30;2.15;;;1.27;;
57605;SDS011;43430;48.204;11.556;2022-10-17T15:14:56;2.40;;;1.17;;
57605;SDS011;43430;48.204;11.556;2022-10-17T15:17:23;2.30;;;0.95;;
57605;SDS011;43430;48.204;11.556;2022-10-17T15:19:50;2.25;;;1.25;;
57605;SDS011;43430;48.204;11.556;2022-10-17T15:22:16;1.85;;;1.00;;
57605;SDS011;43430;48.204;11.556;2022-10-17T15:24:42;1.75;;;1.38;;
57605;SDS011;43430;48.204;11.556;2022-10-17T15:27:18;2.75;;;1.30;;
57605;SDS011;43430;48.204;11.556;2022-10-17T15:29:45;1.55;;;1.00;;
57605;SDS011;43430;48.204;11.556;2022-10-17T15:32:12;3.00;;;1.20;;
57605;SDS011;43430;48.204;11.556;2022-10-17T15:34:38;2.08;;;1.50;;
57605;SDS011;43430;48.204;11.556;2022-10-17T15:37:04;3.50;;;1.00;;
57605;SDS011;43430;48.204;11.556;2022-10-17T15:39:30;2.38;;;1.30;;
57605;SDS011;43430;48.204;11.556;2022-10-17T15:41:56;1.58;;;1.00;;
57605;SDS011;43430;48.204;11.556;2022-10-17T15:44:22;1.85;;;1.23;;
57605;SDS011;43430;48.204;11.556;2022-10-17T15:46:48;2.25;;;1.00;;
57605;SDS011;43430;48.204;11.556;2022-10-17T15:49:14;1.77;;;1.10;;
57605;SDS011;43430;48.204;11.556;2022-10-17T15:51:41;3.05;;;1.15;;
57605;SDS011;43430;48.204;11.556;2022-10-17T15:54:07;2.67;;;1.30;;
57605;SDS011;43430;48.204;11.556;2022-10-17T15:56:41;1.90;;;1.02;;
57605;SDS011;43430;48.204;11.556;2022-10-17T15:59:14;3.42;;;1.15;;
57605;SDS011;43430;48.204;11.556;2022-10-17T16:01:42;3.92;;;1.33;;
57605;SDS011;43430;48.204;11.556;2022-10-17T16:04:09;10.05;;;6.30;;
57605;SDS011;43430;48.204;11.556;2022-10-17T16:06:37;5.10;;;3.15;;
57605;SDS011;43430;48.204;11.556;2022-10-17T16:09:03;3.92;;;1.65;;
57605;SDS011;43430;48.204;11.556;2022-10-17T16:13:54;8.23;;;2.35;;
57605;SDS011;43430;48.204;11.556;2022-10-17T16:16:22;7.70;;;2.83;;
57605;SDS011;43430;48.204;11.556;2022-10-17T16:18:47;5.32;;;2.35;;
57605;SDS011;43430;48.204;11.556;2022-10-17T16:21:13;2.97;;;1.80;;
57605;SDS011;43430;48.204;11.556;2022-10-17T16:23:40;5.57;;;2.15;;
57605;SDS011;43430;48.204;11.556;2022-10-17T16:26:06;9.40;;;5.10;;
57605;SDS011;43430;48.204;11.556;2022-10-17T16:28:32;8.52;;;3.65;;
57605;SDS011;43430;48.204;11.556;2022-10-17T16:30:57;6.57;;;2.35;;
57605;SDS011;43430;48.204;11.556;2022-10-17T16:33:23;3.63;;;1.70;;
57605;SDS011;43430;48.204;11.556;2022-10-17T16:35:48;7.25;;;1.50;;
57605;SDS011;43430;48.204;11.556;2022-10-17T16:38:14;9.80;;;2.42;;
57605;SDS011;43430;48.204;11.556;2022-10-17T16:40:39;3.60;;;1.77;;
57605;SDS011;43430;48.204;11.556;2022-10-17T16:43:05;5.38;;;1.73;;
57605;SDS011;43430;48.204;11.556;2022-10-17T16:45:31;12.02;;;2.42;;
57605;SDS011;43430;48.204;11.556;2022-10-17T16:47:56;6.90;;;2.28;;
57605;SDS011;43430;48.204;11.556;2022-10-17T16:50:22;4.63;;;1.98;;
57605;SDS011;43430;48.204;11.556;2022-10-17T16:52:48;6.07;;;2.08;;
57605;SDS011;43430;48.204;11.556;2022-10-17T16:55:13;13.60;;;2.88;;